createdAt,value
2019-04-23T00:02:13.115Z,1.72
2019-04-23T00:04:35.176Z,1.90
2019-04-23T00:07:26.568Z,1.70
2019-04-23T00:09:47.058Z,1.80
2019-04-23T00:12:24.969Z,2.10
2019-04-23T00:14:55.201Z,1.90
2019-04-23T00:17:26.883Z,2.15
2019-04-23T00:19:47.265Z,1.70
2019-04-23T00:22:34.766Z,2.05
2019-04-23T00:25:25.655Z,1.75
2019-04-23T00:30:18.639Z,2.02
2019-04-23T00:32:36.311Z,2.62
2019-04-23T00:35:06.360Z,2.62
2019-04-23T00:37:35.397Z,2.60
2019-04-23T00:40:04.454Z,2.45
2019-04-23T00:42:41.586Z,2.25
2019-04-23T00:45:12.784Z,2.10
2019-04-23T00:47:40.932Z,2.58
2019-04-23T00:50:30.596Z,2.42
2019-04-23T00:52:40.055Z,2.75
2019-04-23T00:57:43.942Z,2.08
2019-04-23T01:00:31.138Z,2.98
2019-04-23T01:03:01.784Z,2.37
2019-04-23T01:05:21.452Z,2.17
2019-04-23T01:10:25.520Z,2.87
2019-04-23T01:15:26.016Z,2.83
2019-04-23T01:18:08.490Z,2.12
2019-04-23T01:20:36.869Z,2.10
2019-04-23T01:22:48.776Z,3.02
2019-04-23T01:25:40.441Z,2.45
2019-04-23T01:28:26.562Z,2.52
2019-04-23T01:31:02.209Z,2.73
2019-04-23T01:33:35.453Z,2.77
2019-04-23T01:38:35.479Z,2.80
2019-04-23T01:41:03.540Z,3.62
2019-04-23T01:43:38.244Z,3.90
2019-04-23T01:46:08.061Z,4.08
2019-04-23T01:48:40.780Z,3.80
2019-04-23T01:51:04.345Z,4.20
2019-04-23T01:53:38.654Z,3.42
2019-04-23T01:56:18.056Z,3.17
2019-04-23T02:01:11.761Z,3.10
2019-04-23T02:03:46.997Z,2.40
2019-04-23T02:06:13.549Z,2.90
2019-04-23T02:08:48.697Z,3.02
2019-04-23T02:11:13.263Z,2.70
2019-04-23T02:13:49.002Z,2.90
2019-04-23T02:16:19.163Z,2.72
2019-04-23T02:21:26.375Z,2.72
2019-04-23T02:23:55.387Z,2.60
2019-04-23T02:31:58.042Z,2.37
2019-04-23T02:36:45.150Z,2.58
2019-04-23T02:39:03.546Z,2.50
2019-04-23T02:41:54.367Z,2.65
2019-04-23T02:44:21.841Z,2.72
2019-04-23T02:46:56.686Z,2.85
2019-04-23T02:49:20.476Z,2.50
2019-04-23T02:51:54.361Z,2.80
2019-04-23T02:54:36.755Z,2.30
2019-04-23T03:01:54.471Z,2.50
2019-04-23T03:04:30.370Z,2.17
2019-04-23T03:07:07.287Z,2.47
2019-04-23T03:12:09.826Z,2.45
2019-04-23T03:14:24.707Z,2.80
2019-04-23T03:17:00.317Z,2.58
2019-04-23T03:22:15.365Z,2.65
2019-04-23T03:25:10.249Z,2.50
2019-04-23T03:34:42.611Z,2.62
2019-04-23T03:35:36.146Z,2.67
2019-04-23T03:37:40.155Z,3.33
2019-04-23T03:40:11.594Z,3.15
2019-04-23T03:55:28.198Z,2.80
2019-04-23T03:57:46.968Z,3.25
2019-04-23T04:03:01.399Z,3.40
2019-04-23T04:05:32.830Z,3.10
2019-04-23T04:10:33.972Z,3.05
2019-04-23T04:13:04.163Z,2.98
2019-04-23T04:18:18.623Z,3.40
2019-04-23T04:20:39.758Z,3.42
2019-04-23T04:25:42.843Z,3.30
2019-04-23T04:30:48.286Z,4.15
2019-04-23T04:33:32.052Z,3.80
2019-04-23T04:36:10.322Z,3.47
2019-04-23T04:38:38.691Z,4.03
2019-04-23T04:43:32.210Z,4.50
2019-04-23T04:48:32.953Z,4.70
2019-04-23T04:53:47.771Z,5.15
2019-04-23T04:56:16.762Z,5.58
2019-04-23T04:58:44.063Z,5.40
2019-04-23T05:03:29.552Z,5.33
2019-04-23T05:08:39.684Z,5.03
2019-04-23T05:13:53.012Z,5.35
2019-04-23T05:16:07.885Z,4.20
2019-04-23T05:23:42.881Z,4.80
2019-04-23T05:26:20.938Z,4.97
2019-04-23T05:28:55.911Z,4.80
2019-04-23T05:31:18.707Z,4.97
2019-04-23T05:33:52.179Z,5.15
2019-04-23T05:41:37.021Z,5.45
2019-04-23T05:43:57.226Z,4.87
2019-04-23T05:49:04.601Z,5.20
2019-04-23T05:53:58.441Z,4.92
2019-04-23T05:56:27.840Z,4.78
2019-04-23T05:59:06.743Z,4.92
2019-04-23T06:04:11.707Z,5.12
2019-04-23T06:11:50.966Z,5.00
2019-04-23T06:14:17.377Z,5.60
2019-04-23T06:16:41.609Z,5.50
2019-04-23T06:19:12.862Z,5.25
2019-04-23T06:21:56.163Z,4.70
2019-04-23T06:24:24.903Z,5.55
2019-04-23T06:26:45.591Z,5.30
2019-04-23T06:29:22.506Z,5.37
2019-04-23T06:31:48.835Z,5.37
2019-04-23T06:34:24.791Z,5.83
2019-04-23T06:36:51.193Z,5.45
2019-04-23T06:39:21.425Z,6.33
2019-04-23T06:49:30.757Z,5.40
2019-04-23T06:52:12.985Z,5.53
2019-04-23T06:54:45.851Z,5.92
2019-04-23T06:57:17.997Z,5.70
2019-04-23T07:02:18.729Z,5.50
2019-04-23T07:04:41.015Z,5.22
2019-04-23T07:07:34.757Z,5.65
2019-04-23T07:09:35.478Z,5.28
2019-04-23T07:12:08.904Z,5.80
2019-04-23T07:14:47.694Z,5.58
2019-04-23T07:19:42.400Z,5.92
2019-04-23T07:22:16.011Z,5.05
2019-04-23T07:24:51.060Z,6.00
2019-04-23T07:27:20.934Z,6.10
2019-04-23T07:32:19.575Z,6.20
2019-04-23T07:34:57.428Z,5.70
2019-04-23T07:37:17.285Z,5.55
2019-04-23T07:40:11.313Z,5.30
2019-04-23T07:42:39.433Z,3.12
2019-04-23T07:48:16.445Z,6.08
2019-04-23T07:53:19.680Z,6.25
2019-04-23T07:58:25.768Z,3.60
2019-04-23T08:03:20.997Z,4.62
2019-04-23T08:05:49.073Z,4.37
2019-04-23T08:08:26.456Z,5.25
2019-04-23T08:11:30.799Z,5.20
2019-04-23T08:21:21.213Z,6.03
2019-04-23T08:23:57.308Z,6.53
2019-04-23T08:26:34.835Z,7.30
2019-04-23T08:34:09.164Z,6.67
2019-04-23T08:36:34.532Z,6.08
2019-04-23T08:39:05.344Z,6.45
2019-04-23T08:41:46.549Z,6.70
2019-04-23T08:47:13.360Z,7.20
2019-04-23T08:49:50.577Z,6.67
2019-04-23T08:52:11.791Z,6.15
2019-04-23T08:57:18.940Z,6.87
2019-04-23T09:03:03.058Z,7.00
2019-04-23T09:04:54.080Z,7.17
2019-04-23T09:09:57.627Z,7.08
2019-04-23T09:12:24.190Z,7.00
2019-04-23T09:14:53.848Z,6.75
2019-04-23T09:17:27.761Z,6.30
2019-04-23T09:20:18.603Z,7.00
2019-04-23T09:22:28.293Z,7.00
2019-04-23T09:27:27.358Z,6.78
2019-04-23T09:30:01.926Z,6.78
2019-04-23T09:32:28.412Z,7.97
2019-04-23T09:35:27.546Z,7.20
2019-04-23T09:38:11.468Z,7.50
2019-04-23T09:43:22.670Z,6.92
2019-04-23T09:46:08.351Z,7.67
2019-04-23T09:48:38.825Z,6.83
2019-04-23T09:51:03.139Z,7.60
2019-04-23T09:56:01.546Z,6.40
2019-04-23T09:58:34.491Z,6.55
2019-04-23T10:03:47.890Z,6.60
2019-04-23T10:06:16.111Z,6.90
2019-04-23T10:08:46.767Z,7.40
2019-04-23T10:11:11.279Z,6.53
2019-04-23T10:13:42.658Z,6.65
2019-04-23T10:16:15.354Z,7.05
2019-04-23T10:18:44.794Z,6.50
2019-04-23T10:21:15.531Z,7.20
2019-04-23T10:23:45.208Z,6.80
2019-04-23T10:26:16.277Z,7.40
2019-04-23T10:28:57.995Z,6.92
2019-04-23T10:31:27.645Z,7.03
2019-04-23T10:33:57.942Z,6.90
2019-04-23T10:36:30.520Z,6.40
2019-04-23T10:39:07.423Z,7.40
2019-04-23T10:41:33.241Z,7.17
2019-04-23T10:44:09.041Z,7.40
2019-04-23T10:47:23.469Z,6.87
2019-04-23T10:50:05.790Z,6.85
2019-04-23T10:52:33.783Z,7.20
2019-04-23T10:55:03.248Z,6.25
2019-04-23T10:57:45.974Z,6.37
2019-04-23T11:00:05.396Z,6.47
2019-04-23T11:02:39.001Z,7.17
2019-04-23T11:05:26.645Z,9.15
2019-04-23T11:07:41.991Z,7.70
2019-04-23T11:10:14.575Z,6.78
2019-04-23T11:13:11.345Z,7.15
2019-04-23T11:15:34.816Z,6.75
2019-04-23T11:17:52.449Z,6.60
2019-04-23T11:28:11.406Z,6.12
2019-04-23T11:30:36.076Z,6.45
2019-04-23T11:33:22.094Z,6.10
2019-04-23T11:35:53.066Z,6.15
2019-04-23T11:38:35.528Z,6.10
2019-04-23T11:40:37.191Z,5.62
2019-04-23T11:43:15.536Z,6.60
2019-04-23T11:48:34.323Z,5.40
2019-04-23T11:51:21.878Z,6.28
2019-04-23T11:53:24.142Z,5.70
2019-04-23T11:58:20.455Z,6.50
2019-04-23T12:01:47.663Z,6.00
2019-04-23T12:04:05.418Z,6.12
2019-04-23T12:09:16.096Z,5.70
2019-04-23T12:17:13.000Z,5.62
2019-04-23T12:24:57.513Z,5.20
2019-04-23T12:27:08.425Z,5.15
2019-04-23T12:29:44.053Z,5.15
2019-04-23T12:40:15.709Z,4.97
2019-04-23T12:42:58.693Z,5.42
2019-04-23T12:45:20.665Z,5.05
2019-04-23T12:47:49.246Z,4.78
2019-04-23T12:52:49.053Z,5.05
2019-04-23T12:57:49.006Z,5.03
2019-04-23T13:00:23.288Z,4.92
2019-04-23T13:05:23.167Z,5.30
2019-04-23T13:07:52.472Z,5.15
2019-04-23T13:13:09.303Z,4.60
2019-04-23T13:17:54.172Z,5.40
2019-04-23T13:20:28.092Z,4.65
2019-04-23T13:23:08.647Z,5.28
2019-04-23T13:25:39.830Z,4.80
2019-04-23T13:28:12.968Z,5.20
2019-04-23T13:30:46.741Z,4.97
2019-04-23T13:36:03.631Z,5.22
2019-04-23T13:38:28.566Z,5.08
2019-04-23T13:40:57.191Z,4.95
2019-04-23T13:43:37.734Z,5.12
2019-04-23T13:46:08.543Z,4.47
2019-04-23T13:51:00.285Z,5.08
2019-04-23T13:53:40.344Z,5.87
2019-04-23T13:58:26.742Z,5.12
2019-04-23T14:01:13.997Z,5.08
2019-04-23T14:03:45.232Z,5.03
2019-04-23T14:06:18.124Z,5.15
2019-04-23T14:08:47.501Z,5.28
2019-04-23T14:16:21.214Z,4.37
2019-04-23T14:21:20.434Z,5.65
2019-04-23T14:29:01.387Z,5.35
2019-04-23T14:31:17.311Z,5.03
2019-04-23T14:34:02.525Z,5.35
2019-04-23T14:41:23.690Z,5.50
2019-04-23T14:44:00.486Z,5.58
2019-04-23T14:51:51.524Z,7.17
2019-04-23T14:54:09.286Z,6.30
2019-04-23T14:56:51.537Z,6.10
2019-04-23T14:59:07.250Z,6.45
2019-04-23T15:04:03.232Z,5.60
2019-04-23T15:09:22.603Z,6.12
2019-04-23T15:14:16.924Z,5.45
2019-04-23T15:22:04.818Z,5.22
2019-04-23T15:24:26.295Z,5.95
2019-04-23T15:29:12.811Z,4.95
2019-04-23T15:32:03.295Z,4.80
2019-04-23T15:34:23.486Z,5.33
2019-04-23T15:37:14.017Z,5.05
2019-04-23T15:42:12.564Z,5.92
2019-04-23T15:44:32.335Z,4.40
2019-04-23T15:47:12.517Z,4.40
2019-04-23T15:52:14.291Z,4.40
2019-04-23T15:54:45.457Z,4.35
2019-04-23T15:57:45.042Z,4.60
2019-04-23T15:59:47.860Z,4.62
2019-04-23T16:01:46.850Z,4.62
2019-04-23T16:04:18.134Z,4.55
2019-04-23T16:06:47.853Z,4.28
2019-04-23T16:09:52.279Z,4.17
2019-04-23T16:12:09.754Z,4.25
2019-04-23T16:15:02.707Z,5.10
2019-04-23T16:20:06.126Z,4.50
2019-04-23T16:22:26.848Z,5.25
2019-04-23T16:25:08.071Z,4.80
2019-04-23T16:27:19.623Z,4.90
2019-04-23T16:30:09.759Z,5.12
2019-04-23T16:32:51.743Z,4.80
2019-04-23T16:35:28.377Z,4.70
2019-04-23T16:38:01.428Z,4.95
2019-04-23T16:43:02.079Z,4.67
2019-04-23T16:45:25.473Z,4.95
2019-04-23T16:47:59.580Z,4.78
2019-04-23T16:50:28.715Z,3.35
2019-04-23T16:53:00.273Z,3.42
2019-04-23T16:55:24.025Z,5.05
2019-04-23T16:58:04.043Z,4.70
2019-04-23T17:00:35.266Z,5.28
2019-04-23T17:03:11.972Z,4.45
2019-04-23T17:05:34.092Z,5.17
2019-04-23T17:08:33.850Z,5.20
2019-04-23T17:10:38.801Z,4.67
2019-04-23T17:13:17.547Z,4.83
2019-04-23T17:15:48.412Z,5.10
2019-04-23T17:18:12.036Z,4.92
2019-04-23T17:20:47.424Z,4.95
2019-04-23T17:23:29.408Z,5.77
2019-04-23T17:25:48.538Z,6.50
2019-04-23T17:28:18.209Z,5.25
2019-04-23T17:31:01.308Z,5.05
2019-04-23T17:36:13.184Z,5.35
2019-04-23T17:38:49.614Z,4.97
2019-04-23T17:44:01.401Z,4.72
2019-04-23T17:46:27.010Z,4.67
2019-04-23T17:48:56.936Z,4.70
2019-04-23T17:51:28.173Z,4.55
2019-04-23T17:54:10.887Z,5.03
2019-04-23T17:59:04.319Z,4.83
2019-04-23T18:01:43.625Z,4.67
2019-04-23T18:09:16.617Z,4.60
2019-04-23T18:11:37.750Z,4.35
2019-04-23T18:14:09.903Z,4.83
2019-04-23T18:16:47.884Z,4.70
2019-04-23T18:19:15.036Z,4.95
2019-04-23T18:21:50.639Z,4.55
2019-04-23T18:27:00.089Z,4.67
2019-04-23T18:29:41.818Z,4.50
2019-04-23T18:35:03.649Z,5.22
2019-04-23T18:37:17.854Z,6.17
2019-04-23T18:39:45.119Z,5.45
2019-04-23T18:42:34.330Z,5.30
2019-04-23T18:47:29.991Z,5.60
2019-04-23T18:49:45.370Z,5.95
2019-04-23T18:52:27.604Z,5.70
2019-04-23T18:54:48.870Z,5.92
2019-04-23T19:02:51.812Z,5.55
2019-04-23T19:05:15.142Z,6.33
2019-04-23T19:08:08.764Z,5.55
2019-04-23T19:10:51.042Z,5.65
2019-04-23T19:13:31.166Z,6.03
2019-04-23T19:16:04.092Z,5.90
2019-04-23T19:18:30.481Z,5.75
2019-04-23T19:21:07.768Z,5.92
2019-04-23T19:25:49.848Z,5.35
2019-04-23T19:28:44.442Z,5.80
2019-04-23T19:31:16.396Z,5.60
2019-04-23T19:33:35.239Z,6.05
2019-04-23T19:41:03.074Z,6.05
2019-04-23T19:46:16.168Z,6.45
2019-04-23T19:48:48.185Z,6.70
2019-04-23T19:51:08.925Z,6.33
2019-04-23T19:53:55.474Z,7.70
2019-04-23T19:58:44.968Z,8.45
2019-04-23T20:03:49.307Z,9.78
2019-04-23T20:09:12.667Z,10.32
2019-04-23T20:16:29.929Z,10.18
2019-04-23T20:21:19.529Z,11.12
2019-04-23T20:34:51.832Z,10.85
2019-04-23T20:36:56.105Z,10.55
2019-04-23T20:39:32.745Z,10.00
2019-04-23T20:49:43.193Z,10.25
2019-04-23T20:52:10.584Z,10.18
2019-04-23T20:54:51.202Z,10.68
2019-04-23T20:57:43.859Z,9.63
2019-04-23T21:05:15.058Z,9.70
2019-04-23T21:07:52.571Z,10.48
2019-04-23T21:12:50.087Z,8.80
2019-04-23T21:15:16.043Z,8.33
2019-04-23T21:17:51.294Z,8.60
2019-04-23T21:20:14.248Z,7.78
2019-04-23T21:22:41.527Z,7.55
2019-04-23T21:25:08.202Z,7.40
2019-04-23T21:30:23.518Z,7.75
2019-04-23T21:33:07.249Z,6.65
2019-04-23T21:35:42.559Z,6.45
2019-04-23T21:38:00.852Z,6.90
2019-04-23T21:43:11.814Z,6.28
2019-04-23T21:45:52.472Z,6.63
2019-04-23T21:48:15.682Z,6.40
2019-04-23T21:53:20.228Z,6.42
2019-04-23T21:55:54.279Z,5.95
2019-04-23T22:03:34.414Z,6.28
2019-04-23T22:06:01.751Z,6.85
2019-04-23T22:08:27.042Z,6.62
2019-04-23T22:11:10.566Z,5.70
2019-04-23T22:13:49.076Z,6.65
2019-04-23T22:16:06.006Z,6.30
2019-04-23T22:18:34.555Z,6.33
2019-04-23T22:21:15.638Z,6.95
2019-04-23T22:23:45.910Z,6.50
2019-04-23T22:26:07.839Z,6.85
2019-04-23T22:28:44.706Z,6.83
2019-04-23T22:31:14.828Z,6.28
2019-04-23T22:33:37.370Z,5.72
2019-04-23T22:36:11.281Z,6.42
2019-04-23T22:38:45.168Z,6.25
2019-04-23T22:41:10.555Z,6.92
2019-04-23T22:43:47.564Z,6.50
2019-04-23T22:46:16.119Z,7.80
2019-04-23T22:49:10.238Z,6.55
2019-04-23T22:51:29.077Z,6.70
2019-04-23T22:54:07.071Z,6.92
2019-04-23T22:56:31.830Z,6.17
2019-04-23T22:59:11.900Z,7.15
2019-04-23T23:01:43.190Z,6.35
2019-04-23T23:06:48.568Z,6.28
2019-04-23T23:09:22.559Z,6.80
2019-04-23T23:11:51.083Z,5.85
2019-04-23T23:14:18.569Z,6.30
2019-04-23T23:16:45.102Z,6.25
2019-04-23T23:21:59.512Z,5.97
2019-04-23T23:24:15.427Z,6.15
2019-04-23T23:26:55.986Z,6.03
2019-04-23T23:29:19.156Z,6.87
2019-04-23T23:34:27.749Z,6.40
2019-04-23T23:37:02.161Z,6.47
2019-04-23T23:41:58.883Z,6.50
2019-04-23T23:47:04.358Z,6.78
2019-04-23T23:51:57.709Z,7.33
2019-04-23T23:54:27.479Z,6.05
2019-04-23T23:57:03.737Z,6.47
